createdAt,value
2023-05-24T00:01:47.990Z,97.70
2023-05-24T00:04:16.783Z,97.90
2023-05-24T00:06:45.463Z,97.80
2023-05-24T00:09:15.521Z,98.10
2023-05-24T00:11:44.155Z,98.40
2023-05-24T00:14:12.828Z,98.80
2023-05-24T00:16:41.599Z,98.70
2023-05-24T00:19:11.534Z,99.20
2023-05-24T00:21:40.265Z,99.90
2023-05-24T00:24:08.896Z,99.90
2023-05-24T00:26:39.288Z,99.80
2023-05-24T00:29:08.181Z,99.90
2023-05-24T00:31:36.798Z,99.90
2023-05-24T00:34:05.433Z,99.90
2023-05-24T00:36:34.412Z,99.90
2023-05-24T00:39:03.134Z,99.90
2023-05-24T00:41:31.755Z,99.90
2023-05-24T00:44:01.791Z,99.90
2023-05-24T00:46:31.866Z,99.90
2023-05-24T00:49:01.787Z,99.90
2023-05-24T00:51:30.896Z,99.90
2023-05-24T00:53:59.631Z,99.90
2023-05-24T00:56:29.213Z,99.90
2023-05-24T00:58:57.948Z,99.90
2023-05-24T01:01:31.293Z,99.90
2023-05-24T01:04:00.834Z,99.90
2023-05-24T01:06:30.903Z,99.90
2023-05-24T01:09:11.938Z,99.90
2023-05-24T01:11:50.778Z,99.90
2023-05-24T01:14:27.779Z,99.90
2023-05-24T01:17:05.515Z,99.90
2023-05-24T01:19:52.743Z,99.90
2023-05-24T01:22:57.837Z,99.90
2023-05-24T01:25:42.018Z,99.90
2023-05-24T01:28:13.782Z,99.90
2023-05-24T01:30:43.226Z,99.90
2023-05-24T01:33:12.189Z,99.90
2023-05-24T01:35:42.825Z,99.90
2023-05-24T01:38:12.313Z,99.90
2023-05-24T01:40:42.650Z,99.90
2023-05-24T01:43:18.496Z,99.90
2023-05-24T01:46:00.560Z,99.90
2023-05-24T01:48:36.520Z,99.90
2023-05-24T01:51:11.903Z,99.90
2023-05-24T01:53:46.726Z,99.90
2023-05-24T01:56:17.302Z,99.90
2023-05-24T01:58:49.075Z,99.90
2023-05-24T02:01:18.449Z,99.90
2023-05-24T02:03:48.435Z,99.90
2023-05-24T02:06:17.047Z,99.90
2023-05-24T02:08:47.003Z,99.90
2023-05-24T02:11:15.607Z,99.90
2023-05-24T02:13:44.229Z,99.90
2023-05-24T02:16:14.316Z,99.90
2023-05-24T02:18:44.720Z,99.90
2023-05-24T02:21:13.418Z,99.90
2023-05-24T02:23:42.081Z,99.90
2023-05-24T02:26:12.221Z,99.90
2023-05-24T02:28:40.877Z,99.90
2023-05-24T02:31:09.507Z,99.90
2023-05-24T02:33:40.129Z,99.90
2023-05-24T02:36:08.987Z,99.90
2023-05-24T02:38:38.562Z,99.90
2023-05-24T02:41:07.381Z,99.90
2023-05-24T02:43:36.027Z,99.90
2023-05-24T02:46:05.169Z,99.90
2023-05-24T02:48:33.904Z,99.90
2023-05-24T02:51:04.280Z,99.90
2023-05-24T02:53:33.234Z,99.90
2023-05-24T02:56:02.133Z,99.90
2023-05-24T02:58:30.741Z,99.90
2023-05-24T03:00:59.364Z,99.90
2023-05-24T03:03:28.063Z,99.90
2023-05-24T03:05:56.761Z,99.90
2023-05-24T03:08:26.847Z,99.90
2023-05-24T03:10:55.458Z,99.90
2023-05-24T03:13:24.263Z,99.90
2023-05-24T03:15:52.898Z,99.90
2023-05-24T03:18:21.739Z,99.90
2023-05-24T03:20:50.452Z,99.90
2023-05-24T03:23:19.107Z,99.90
2023-05-24T03:25:49.208Z,99.90
2023-05-24T03:28:17.878Z,99.90
2023-05-24T03:30:46.468Z,99.90
2023-05-24T03:33:15.146Z,99.90
2023-05-24T03:35:43.877Z,99.90
2023-05-24T03:38:12.494Z,99.90
2023-05-24T03:40:41.661Z,99.90
2023-05-24T03:43:12.456Z,99.90
2023-05-24T03:45:41.142Z,99.90
2023-05-24T03:48:09.815Z,99.90
2023-05-24T03:50:38.457Z,99.90
2023-05-24T03:53:07.642Z,99.90
2023-05-24T03:55:36.305Z,99.90
2023-05-24T03:58:05.069Z,99.90
2023-05-24T04:00:35.061Z,99.90
2023-05-24T04:03:06.992Z,99.90
2023-05-24T04:05:35.817Z,99.90
2023-05-24T04:08:04.494Z,99.90
2023-05-24T04:10:33.292Z,99.90
2023-05-24T04:13:02.420Z,99.90
2023-05-24T04:15:31.479Z,99.90
2023-05-24T04:18:03.492Z,99.90
2023-05-24T04:20:32.644Z,99.90
2023-05-24T04:23:01.446Z,99.90
2023-05-24T04:25:30.393Z,99.90
2023-05-24T04:27:59.012Z,99.90
2023-05-24T04:30:30.673Z,99.90
2023-05-24T04:33:01.162Z,99.90
2023-05-24T04:35:30.453Z,99.90
2023-05-24T04:38:00.305Z,99.90
2023-05-24T04:40:28.891Z,99.90
2023-05-24T04:42:57.644Z,99.90
2023-05-24T04:45:26.517Z,99.90
2023-05-24T04:47:55.283Z,99.90
2023-05-24T04:50:26.000Z,99.90
2023-05-24T04:52:54.819Z,99.90
2023-05-24T04:55:23.548Z,99.90
2023-05-24T04:57:52.159Z,99.90
2023-05-24T05:00:21.671Z,99.90
2023-05-24T05:02:50.762Z,99.90
2023-05-24T05:05:20.380Z,99.90
2023-05-24T05:07:50.618Z,99.90
2023-05-24T05:10:20.634Z,99.90
2023-05-24T05:12:50.586Z,99.90
2023-05-24T05:18:07.337Z,99.90
2023-05-24T05:20:36.254Z,99.90
2023-05-24T05:23:06.513Z,99.90
2023-05-24T05:25:36.335Z,99.90
2023-05-24T05:28:05.027Z,99.90
2023-05-24T05:30:33.747Z,99.90
2023-05-24T05:33:02.404Z,99.90
2023-05-24T05:35:31.141Z,99.90
2023-05-24T05:38:00.035Z,99.90
2023-05-24T05:40:30.136Z,99.90
2023-05-24T05:42:58.774Z,99.90
2023-05-24T05:45:27.471Z,99.90
2023-05-24T05:47:56.194Z,99.90
2023-05-24T05:50:24.886Z,99.90
2023-05-24T05:52:53.600Z,99.90
2023-05-24T05:55:22.372Z,99.60
2023-05-24T05:57:52.444Z,99.70
2023-05-24T06:00:23.696Z,99.90
2023-05-24T06:02:52.496Z,98.90
2023-05-24T06:05:21.718Z,98.90
2023-05-24T06:07:50.362Z,99.20
2023-05-24T06:10:19.406Z,99.00
2023-05-24T06:12:48.140Z,98.70
2023-05-24T06:15:18.600Z,98.60
2023-05-24T06:17:48.294Z,98.60
2023-05-24T06:20:17.372Z,98.70
2023-05-24T06:22:46.529Z,98.40
2023-05-24T06:25:19.335Z,98.20
2023-05-24T06:27:48.134Z,98.20
2023-05-24T06:30:18.526Z,97.50
2023-05-24T06:32:47.206Z,97.50
2023-05-24T06:35:16.130Z,97.60
2023-05-24T06:37:44.815Z,96.70
2023-05-24T06:40:14.461Z,98.10
2023-05-24T06:42:43.053Z,97.80
2023-05-24T06:45:12.477Z,96.40
2023-05-24T06:47:43.966Z,96.50
2023-05-24T06:50:12.935Z,96.90
2023-05-24T06:52:41.657Z,96.00
2023-05-24T06:55:11.001Z,95.70
2023-05-24T06:57:39.773Z,95.30
2023-05-24T07:00:10.722Z,94.90
2023-05-24T07:02:39.755Z,92.40
2023-05-24T07:05:12.605Z,92.60
2023-05-24T07:07:41.622Z,92.50
2023-05-24T07:10:11.823Z,91.20
2023-05-24T07:12:40.527Z,90.80
2023-05-24T07:15:10.401Z,85.00
2023-05-24T07:17:39.230Z,84.90
2023-05-24T07:20:11.894Z,85.00
2023-05-24T07:22:40.688Z,85.60
2023-05-24T07:25:10.027Z,84.90
2023-05-24T07:27:38.743Z,83.90
2023-05-24T07:30:19.601Z,84.80
2023-05-24T07:32:53.354Z,83.70
2023-05-24T07:35:24.234Z,85.20
2023-05-24T07:37:53.040Z,87.10
2023-05-24T07:40:21.720Z,85.80
2023-05-24T07:42:52.545Z,84.70
2023-05-24T07:45:21.347Z,86.20
2023-05-24T07:47:50.353Z,87.30
2023-05-24T07:50:20.446Z,84.00
2023-05-24T07:52:52.962Z,83.90
2023-05-24T07:55:21.983Z,84.80
2023-05-24T07:57:51.278Z,84.70
2023-05-24T08:00:22.690Z,83.20
2023-05-24T08:02:52.607Z,85.10
2023-05-24T08:05:21.418Z,85.40
2023-05-24T08:07:51.868Z,84.00
2023-05-24T08:10:20.787Z,84.20
2023-05-24T08:12:51.726Z,87.10
2023-05-24T08:15:23.067Z,86.90
2023-05-24T08:17:56.037Z,85.20
2023-05-24T08:20:25.210Z,86.40
2023-05-24T08:23:00.154Z,85.30
2023-05-24T08:25:30.550Z,85.40
2023-05-24T08:27:59.165Z,84.00
2023-05-24T08:30:28.044Z,83.50
2023-05-24T08:32:58.533Z,83.70
2023-05-24T08:35:27.367Z,83.70
2023-05-24T08:37:57.464Z,84.10
2023-05-24T08:40:26.843Z,81.60
2023-05-24T08:42:57.413Z,81.20
2023-05-24T08:45:30.987Z,81.10
2023-05-24T08:48:01.277Z,81.90
2023-05-24T08:50:31.687Z,81.50
2023-05-24T08:53:03.309Z,81.50
2023-05-24T08:55:33.336Z,79.30
2023-05-24T08:58:03.201Z,77.40
2023-05-24T09:00:31.983Z,75.40
2023-05-24T09:03:01.765Z,75.20
2023-05-24T09:05:33.545Z,70.80
2023-05-24T09:08:04.795Z,70.50
2023-05-24T09:10:49.499Z,69.50
2023-05-24T09:13:25.261Z,69.20
2023-05-24T09:15:54.597Z,68.00
2023-05-24T09:18:23.708Z,68.90
2023-05-24T09:20:54.175Z,69.00
2023-05-24T09:23:29.577Z,68.30
2023-05-24T09:25:58.894Z,67.60
2023-05-24T09:28:27.519Z,66.90
2023-05-24T09:31:06.358Z,68.60
2023-05-24T09:33:36.911Z,68.60
2023-05-24T09:36:07.898Z,71.10
2023-05-24T09:38:38.230Z,69.30
2023-05-24T09:41:08.869Z,69.60
2023-05-24T09:43:50.217Z,70.10
2023-05-24T09:46:23.338Z,69.70
2023-05-24T09:48:59.289Z,68.00
2023-05-24T09:51:28.829Z,67.90
2023-05-24T09:54:03.359Z,67.60
2023-05-24T09:56:35.958Z,68.00
2023-05-24T09:59:10.251Z,68.40
2023-05-24T10:01:39.415Z,69.30
2023-05-24T10:04:10.159Z,68.50
2023-05-24T10:06:48.581Z,66.80
2023-05-24T10:09:20.007Z,66.80
2023-05-24T10:11:50.249Z,66.60
2023-05-24T10:14:21.535Z,66.50
2023-05-24T10:16:51.339Z,67.70
2023-05-24T10:19:20.216Z,67.40
2023-05-24T10:21:51.019Z,67.80
2023-05-24T10:24:29.162Z,67.30
2023-05-24T10:26:59.030Z,66.00
2023-05-24T10:29:38.142Z,64.40
2023-05-24T10:32:07.806Z,61.60
2023-05-24T10:34:39.410Z,60.30
2023-05-24T10:37:08.570Z,60.00
2023-05-24T10:39:38.919Z,59.50
2023-05-24T10:42:09.905Z,59.70
2023-05-24T10:44:38.778Z,58.60
2023-05-24T10:47:12.450Z,58.60
2023-05-24T10:49:49.350Z,61.00
2023-05-24T10:52:18.115Z,62.70
2023-05-24T10:55:05.662Z,61.50
2023-05-24T10:57:34.641Z,62.70
2023-05-24T11:03:04.439Z,60.00
2023-05-24T11:05:37.441Z,59.40
2023-05-24T11:08:09.807Z,59.80
2023-05-24T11:10:44.025Z,59.60
2023-05-24T11:13:13.029Z,59.00
2023-05-24T11:15:51.397Z,57.90
2023-05-24T11:18:24.964Z,57.60
2023-05-24T11:20:54.135Z,57.40
2023-05-24T11:23:22.890Z,57.00
2023-05-24T11:25:55.653Z,57.50
2023-05-24T11:28:25.136Z,57.30
2023-05-24T11:30:53.890Z,57.40
2023-05-24T11:33:23.903Z,56.00
2023-05-24T11:35:53.544Z,55.90
2023-05-24T11:38:24.885Z,57.20
2023-05-24T11:40:55.453Z,58.50
2023-05-24T11:43:24.399Z,58.60
2023-05-24T11:45:59.563Z,60.30
2023-05-24T11:48:38.630Z,61.90
2023-05-24T11:51:10.521Z,59.60
2023-05-24T11:53:41.923Z,60.80
2023-05-24T11:56:12.348Z,63.10
2023-05-24T11:58:49.904Z,62.50
2023-05-24T12:01:26.518Z,60.30
2023-05-24T12:03:55.388Z,61.60
2023-05-24T12:06:24.663Z,61.40
2023-05-24T12:08:53.265Z,62.00
2023-05-24T12:11:23.727Z,63.00
2023-05-24T12:13:53.753Z,58.90
2023-05-24T12:16:23.325Z,61.10
2023-05-24T12:19:04.100Z,63.20
2023-05-24T12:21:42.978Z,62.70
2023-05-24T12:24:13.005Z,69.00
2023-05-24T12:26:46.857Z,70.90
2023-05-24T12:29:16.190Z,68.80
2023-05-24T12:31:46.559Z,69.30
2023-05-24T12:34:16.879Z,71.40
2023-05-24T12:36:45.927Z,72.70
2023-05-24T12:39:21.908Z,74.10
2023-05-24T12:41:57.043Z,71.50
2023-05-24T12:44:27.433Z,73.00
2023-05-24T12:46:56.930Z,73.30
2023-05-24T12:49:27.161Z,72.00
2023-05-24T12:51:56.781Z,70.30
2023-05-24T12:54:26.444Z,70.60
2023-05-24T12:57:00.438Z,71.60
2023-05-24T12:59:29.731Z,73.00
2023-05-24T13:01:59.153Z,72.70
2023-05-24T13:04:28.393Z,73.00
2023-05-24T13:06:56.994Z,71.60
2023-05-24T13:09:26.370Z,74.30
2023-05-24T13:11:57.255Z,71.20
2023-05-24T13:14:26.085Z,70.30
2023-05-24T13:16:54.840Z,70.90
2023-05-24T13:19:23.560Z,69.50
2023-05-24T13:21:52.776Z,70.30
2023-05-24T13:24:21.520Z,69.30
2023-05-24T13:26:52.235Z,69.70
2023-05-24T13:31:56.601Z,68.20
2023-05-24T13:34:26.117Z,68.00
2023-05-24T13:36:55.475Z,68.40
2023-05-24T13:39:25.087Z,69.20
2023-05-24T13:41:53.970Z,70.00
2023-05-24T13:44:26.995Z,68.90
2023-05-24T13:46:56.979Z,68.40
2023-05-24T13:49:25.662Z,68.20
2023-05-24T13:51:57.999Z,69.50
2023-05-24T13:54:28.052Z,70.20
2023-05-24T13:56:57.822Z,70.90
2023-05-24T13:59:28.503Z,70.90
2023-05-24T14:01:57.730Z,71.70
2023-05-24T14:04:26.379Z,72.50
2023-05-24T14:06:55.012Z,70.30
2023-05-24T14:09:23.922Z,69.50
2023-05-24T14:11:52.653Z,69.10
2023-05-24T14:16:58.763Z,67.10
2023-05-24T14:19:27.697Z,64.90
2023-05-24T14:21:56.710Z,66.90
2023-05-24T14:24:25.332Z,69.10
2023-05-24T14:26:54.021Z,70.00
2023-05-24T14:29:22.756Z,70.60
2023-05-24T14:31:51.780Z,71.00
2023-05-24T14:34:22.366Z,69.70
2023-05-24T14:36:50.973Z,70.90
2023-05-24T14:39:19.729Z,76.20
2023-05-24T14:41:48.374Z,78.20
2023-05-24T14:44:18.292Z,79.00
2023-05-24T14:46:48.142Z,78.20
2023-05-24T14:49:16.941Z,77.30
2023-05-24T14:51:49.920Z,78.80
2023-05-24T14:54:18.668Z,78.80
2023-05-24T14:56:47.418Z,80.00
2023-05-24T14:59:16.328Z,79.30
2023-05-24T15:01:45.032Z,78.80
2023-05-24T15:04:13.849Z,79.10
2023-05-24T15:06:42.566Z,79.00
2023-05-24T15:09:13.628Z,79.70
2023-05-24T15:11:42.381Z,81.30
2023-05-24T15:14:12.205Z,83.40
2023-05-24T15:16:41.471Z,82.60
2023-05-24T15:19:10.717Z,82.70
2023-05-24T15:21:39.493Z,80.30
2023-05-24T15:24:08.917Z,82.00
2023-05-24T15:26:39.207Z,81.40
2023-05-24T15:29:07.956Z,76.70
2023-05-24T15:31:36.824Z,76.60
2023-05-24T15:34:06.347Z,75.70
2023-05-24T15:36:35.064Z,78.10
2023-05-24T15:39:03.796Z,81.50
2023-05-24T15:41:32.499Z,82.60
2023-05-24T15:44:09.024Z,83.50
2023-05-24T15:46:38.122Z,83.30
2023-05-24T15:49:06.917Z,83.90
2023-05-24T15:54:08.949Z,84.50
2023-05-24T15:56:41.582Z,85.60
2023-05-24T15:59:12.188Z,86.60
2023-05-24T16:01:41.949Z,85.80
2023-05-24T16:04:10.834Z,86.00
2023-05-24T16:06:40.093Z,87.10
2023-05-24T16:09:09.108Z,88.10
2023-05-24T16:11:38.099Z,87.60
2023-05-24T16:14:06.882Z,90.30
2023-05-24T16:16:37.242Z,90.80
2023-05-24T16:19:06.117Z,91.90
2023-05-24T16:21:37.213Z,93.30
2023-05-24T16:24:06.785Z,94.60
2023-05-24T16:26:35.985Z,95.90
2023-05-24T16:29:06.907Z,96.70
2023-05-24T16:31:37.419Z,97.40
2023-05-24T16:34:06.231Z,98.50
2023-05-24T16:36:35.461Z,99.30
2023-05-24T16:39:04.432Z,99.90
2023-05-24T16:41:37.958Z,99.90
2023-05-24T16:44:06.828Z,99.90
2023-05-24T16:46:37.768Z,99.90
2023-05-24T16:49:06.943Z,99.90
2023-05-24T16:51:37.221Z,99.90
2023-05-24T16:54:11.698Z,99.90
2023-05-24T16:56:40.937Z,99.90
2023-05-24T16:59:09.799Z,99.90
2023-05-24T17:01:40.358Z,99.90
2023-05-24T17:04:09.729Z,99.90
2023-05-24T17:06:38.702Z,99.90
2023-05-24T17:09:08.056Z,99.90
2023-05-24T17:11:37.316Z,99.90
2023-05-24T17:14:06.076Z,99.90
2023-05-24T17:16:35.390Z,99.90
2023-05-24T17:19:06.343Z,99.90
2023-05-24T17:21:35.535Z,99.90
2023-05-24T17:24:04.281Z,99.90
2023-05-24T17:26:34.953Z,99.90
2023-05-24T17:29:03.832Z,99.90
2023-05-24T17:31:33.074Z,99.90
2023-05-24T17:34:02.100Z,99.90
2023-05-24T17:36:33.901Z,99.90
2023-05-24T17:39:02.553Z,99.90
2023-05-24T17:41:31.704Z,99.90
2023-05-24T17:44:00.804Z,99.90
2023-05-24T17:46:29.798Z,99.90
2023-05-24T17:49:01.229Z,99.90
2023-05-24T17:51:32.103Z,99.90
2023-05-24T17:54:00.789Z,99.90
2023-05-24T17:56:30.601Z,99.90
2023-05-24T17:59:01.182Z,99.90
2023-05-24T18:01:30.360Z,99.90
2023-05-24T18:03:59.154Z,99.90
2023-05-24T18:06:27.849Z,99.90
2023-05-24T18:08:59.596Z,99.90
2023-05-24T18:11:30.204Z,99.90
2023-05-24T18:14:00.763Z,99.90
2023-05-24T18:16:29.813Z,99.90
2023-05-24T18:18:59.053Z,99.90
2023-05-24T18:21:27.757Z,99.90
2023-05-24T18:23:56.461Z,99.90
2023-05-24T18:26:27.573Z,99.90
2023-05-24T18:28:56.657Z,99.90
2023-05-24T18:31:25.662Z,99.90
2023-05-24T18:33:54.615Z,99.90
2023-05-24T18:36:23.645Z,99.90
2023-05-24T18:38:54.153Z,99.90
2023-05-24T18:41:22.991Z,99.90
2023-05-24T18:43:53.498Z,99.90
2023-05-24T18:46:22.522Z,99.90
2023-05-24T18:48:52.971Z,99.90
2023-05-24T18:51:21.814Z,99.90
2023-05-24T18:53:51.967Z,99.90
2023-05-24T18:56:20.834Z,99.90
2023-05-24T18:58:51.395Z,99.90
2023-05-24T19:01:21.824Z,99.90
2023-05-24T19:03:50.610Z,99.90
2023-05-24T19:06:19.465Z,99.90
2023-05-24T19:08:48.308Z,99.90
2023-05-24T19:11:17.164Z,99.90
2023-05-24T19:13:45.866Z,99.90
2023-05-24T19:16:17.910Z,99.90
2023-05-24T19:18:48.246Z,99.90
2023-05-24T19:21:17.331Z,99.90
2023-05-24T19:23:46.160Z,99.90
2023-05-24T19:26:18.225Z,99.90
2023-05-24T19:28:50.706Z,99.90
2023-05-24T19:31:19.989Z,99.90
2023-05-24T19:34:00.323Z,99.90
2023-05-24T19:36:31.124Z,99.90
2023-05-24T19:39:00.142Z,99.90
2023-05-24T19:41:28.749Z,99.90
2023-05-24T19:43:58.997Z,99.90
2023-05-24T19:46:28.046Z,99.90
2023-05-24T19:48:58.132Z,99.90
2023-05-24T19:51:26.831Z,99.90
2023-05-24T19:53:55.492Z,99.90
2023-05-24T19:56:24.899Z,99.90
2023-05-24T19:58:53.625Z,99.90
2023-05-24T20:01:22.381Z,99.90
2023-05-24T20:03:51.109Z,99.90
2023-05-24T20:06:21.421Z,99.90
2023-05-24T20:08:50.228Z,99.90
2023-05-24T20:11:18.856Z,99.90
2023-05-24T20:13:47.578Z,99.90
2023-05-24T20:16:17.572Z,99.90
2023-05-24T20:18:46.444Z,99.90
2023-05-24T20:21:15.767Z,99.90
2023-05-24T20:23:50.068Z,99.90
2023-05-24T20:26:19.070Z,99.90
2023-05-24T20:28:50.260Z,99.90
2023-05-24T20:31:24.332Z,99.90
2023-05-24T20:33:53.204Z,99.90
2023-05-24T20:36:22.457Z,99.90
2023-05-24T20:38:53.103Z,99.90
2023-05-24T20:41:22.091Z,99.90
2023-05-24T20:43:51.683Z,99.90
2023-05-24T20:46:20.410Z,99.90
2023-05-24T20:48:51.165Z,99.90
2023-05-24T20:51:20.129Z,99.90
2023-05-24T20:53:51.882Z,99.90
2023-05-24T20:56:31.413Z,99.90
2023-05-24T20:59:02.364Z,99.90
2023-05-24T21:01:31.045Z,99.90
2023-05-24T21:03:59.828Z,99.90
2023-05-24T21:06:28.643Z,99.90
2023-05-24T21:08:59.112Z,99.90
2023-05-24T21:11:29.710Z,99.90
2023-05-24T21:13:58.730Z,99.90
2023-05-24T21:16:27.661Z,99.90
2023-05-24T21:18:57.021Z,99.90
2023-05-24T21:21:25.692Z,99.90
2023-05-24T21:23:54.347Z,99.90
2023-05-24T21:26:23.036Z,99.90
2023-05-24T21:28:53.157Z,99.90
2023-05-24T21:31:22.025Z,99.90
2023-05-24T21:33:50.753Z,99.90
2023-05-24T21:36:19.710Z,99.90
2023-05-24T21:38:49.039Z,99.90
2023-05-24T21:41:17.619Z,99.90
2023-05-24T21:43:46.252Z,99.90
2023-05-24T21:46:16.557Z,99.90
2023-05-24T21:48:45.163Z,99.90
2023-05-24T21:51:15.748Z,99.90
2023-05-24T21:53:44.400Z,99.90
2023-05-24T21:56:12.981Z,99.90
2023-05-24T21:58:41.613Z,99.90
2023-05-24T22:01:10.263Z,99.90
2023-05-24T22:03:40.642Z,99.90
2023-05-24T22:06:09.940Z,99.90
2023-05-24T22:08:38.585Z,99.90
2023-05-24T22:11:07.409Z,99.90
2023-05-24T22:13:36.022Z,99.90
2023-05-24T22:16:04.643Z,99.90
2023-05-24T22:18:34.498Z,99.90
2023-05-24T22:21:04.549Z,99.90
2023-05-24T22:23:33.591Z,99.90
2023-05-24T22:26:02.251Z,99.90
2023-05-24T22:28:34.268Z,99.90
2023-05-24T22:31:03.705Z,99.90
2023-05-24T22:33:32.357Z,99.90
2023-05-24T22:36:02.146Z,99.90
2023-05-24T22:38:32.364Z,99.90
2023-05-24T22:41:00.950Z,99.90
2023-05-24T22:43:29.569Z,99.90
2023-05-24T22:45:58.533Z,99.90
2023-05-24T22:48:27.856Z,99.90
2023-05-24T22:50:57.751Z,99.90
2023-05-24T22:53:34.205Z,99.90
2023-05-24T22:56:02.869Z,99.90
2023-05-24T22:58:31.547Z,99.90
2023-05-24T23:01:00.189Z,99.90
2023-05-24T23:03:30.024Z,99.90
2023-05-24T23:06:04.597Z,99.90
2023-05-24T23:08:35.342Z,99.90
2023-05-24T23:11:10.708Z,99.90
2023-05-24T23:13:42.550Z,99.90
2023-05-24T23:16:12.687Z,99.90
2023-05-24T23:18:43.362Z,99.90
2023-05-24T23:21:12.102Z,99.90
2023-05-24T23:23:42.406Z,99.90
2023-05-24T23:26:11.060Z,99.90
2023-05-24T23:28:39.727Z,99.90
2023-05-24T23:31:08.643Z,99.90
2023-05-24T23:33:37.325Z,99.90
2023-05-24T23:36:06.505Z,99.90
2023-05-24T23:38:35.094Z,99.90
2023-05-24T23:41:05.211Z,99.90
2023-05-24T23:43:34.025Z,99.90
2023-05-24T23:46:02.634Z,99.90
2023-05-24T23:48:31.272Z,99.90
2023-05-24T23:50:59.920Z,99.90
2023-05-24T23:53:28.603Z,99.90
2023-05-24T23:55:57.210Z,99.90
2023-05-24T23:58:27.273Z,99.90
